sensor_id;sensor_type;location;lat;lon;timestamp;pressure;altitude;pressure_sealevel;temperature;humidity
16738;BME280;17906;47.684;10.806;2023-02-19T00:01:46;93734.06;;;5.57;82.78
16738;BME280;17906;47.684;10.806;2023-02-19T00:04:14;93748.34;;;5.58;82.72
16738;BME280;17906;47.684;10.806;2023-02-19T00:06:42;93749.81;;;5.53;82.81
16738;BME280;17906;47.684;10.806;2023-02-19T00:09:09;93751.66;;;5.53;82.91
16738;BME280;17906;47.684;10.806;2023-02-19T00:11:36;93741.53;;;5.55;82.81
16738;BME280;17906;47.684;10.806;2023-02-19T00:14:04;93741.31;;;5.57;82.31
16738;BME280;17906;47.684;10.806;2023-02-19T00:16:32;93744.22;;;5.55;82.67
16738;BME280;17906;47.684;10.806;2023-02-19T00:19:02;93744.22;;;5.55;82.76
16738;BME280;17906;47.684;10.806;2023-02-19T00:21:29;93739.25;;;5.52;82.70
16738;BME280;17906;47.684;10.806;2023-02-19T00:23:58;93726.63;;;5.52;82.59
16738;BME280;17906;47.684;10.806;2023-02-19T00:26:24;93728.88;;;5.49;82.97
16738;BME280;17906;47.684;10.806;2023-02-19T00:28:53;93726.00;;;5.50;82.89
16738;BME280;17906;47.684;10.806;2023-02-19T00:31:22;93724.56;;;5.54;82.80
16738;BME280;17906;47.684;10.806;2023-02-19T00:33:50;93718.97;;;5.49;82.82
16738;BME280;17906;47.684;10.806;2023-02-19T00:36:18;93708.00;;;5.51;82.89
16738;BME280;17906;47.684;10.806;2023-02-19T00:38:46;93712.38;;;5.52;82.89
16738;BME280;17906;47.684;10.806;2023-02-19T00:41:14;93718.56;;;5.59;82.44
16738;BME280;17906;47.684;10.806;2023-02-19T00:43:48;93705.53;;;5.56;82.37
16738;BME280;17906;47.684;10.806;2023-02-19T00:46:15;93709.66;;;5.59;82.46
16738;BME280;17906;47.684;10.806;2023-02-19T00:48:42;93699.13;;;5.57;82.55
16738;BME280;17906;47.684;10.806;2023-02-19T00:51:08;93713.38;;;5.58;82.48
16738;BME280;17906;47.684;10.806;2023-02-19T00:53:37;93711.09;;;5.61;82.37
16738;BME280;17906;47.684;10.806;2023-02-19T00:56:04;93703.69;;;5.63;82.12
16738;BME280;17906;47.684;10.806;2023-02-19T00:58:31;93708.41;;;5.61;82.29
16738;BME280;17906;47.684;10.806;2023-02-19T01:00:57;93708.84;;;5.58;82.48
16738;BME280;17906;47.684;10.806;2023-02-19T01:03:24;93707.38;;;5.62;81.99
16738;BME280;17906;47.684;10.806;2023-02-19T01:05:51;93707.59;;;5.67;82.03
16738;BME280;17906;47.684;10.806;2023-02-19T01:08:19;93709.69;;;5.65;81.91
16738;BME280;17906;47.684;10.806;2023-02-19T01:10:47;93702.00;;;5.62;82.07
16738;BME280;17906;47.684;10.806;2023-02-19T01:13:14;93705.31;;;5.58;82.25
16738;BME280;17906;47.684;10.806;2023-02-19T01:15:40;93697.25;;;5.58;82.42
16738;BME280;17906;47.684;10.806;2023-02-19T01:18:07;93682.38;;;5.55;82.33
16738;BME280;17906;47.684;10.806;2023-02-19T01:20:33;93690.44;;;5.55;82.42
16738;BME280;17906;47.684;10.806;2023-02-19T01:23:00;93684.00;;;5.56;82.25
16738;BME280;17906;47.684;10.806;2023-02-19T01:25:26;93687.13;;;5.53;82.47
16738;BME280;17906;47.684;10.806;2023-02-19T01:27:55;93688.34;;;5.50;82.68
16738;BME280;17906;47.684;10.806;2023-02-19T01:30:21;93678.63;;;5.49;82.63
16738;BME280;17906;47.684;10.806;2023-02-19T01:32:47;93666.22;;;5.55;82.47
16738;BME280;17906;47.684;10.806;2023-02-19T01:35:14;93676.78;;;5.57;82.22
16738;BME280;17906;47.684;10.806;2023-02-19T01:37:41;93663.13;;;5.65;81.53
16738;BME280;17906;47.684;10.806;2023-02-19T01:40:08;93664.38;;;5.55;82.21
16738;BME280;17906;47.684;10.806;2023-02-19T01:42:35;93666.84;;;5.57;82.18
16738;BME280;17906;47.684;10.806;2023-02-19T01:45:20;93666.84;;;5.57;82.05
16738;BME280;17906;47.684;10.806;2023-02-19T01:47:49;93659.81;;;5.49;82.62
16738;BME280;17906;47.684;10.806;2023-02-19T01:50:18;93663.53;;;5.48;82.87
16738;BME280;17906;47.684;10.806;2023-02-19T01:52:44;93660.44;;;5.51;82.44
16738;BME280;17906;47.684;10.806;2023-02-19T01:55:11;93668.69;;;5.50;82.46
16738;BME280;17906;47.684;10.806;2023-02-19T01:57:42;93658.59;;;5.52;82.34
16738;BME280;17906;47.684;10.806;2023-02-19T02:00:12;93662.31;;;5.44;82.62
16738;BME280;17906;47.684;10.806;2023-02-19T02:02:42;93661.28;;;5.52;82.50
16738;BME280;17906;47.684;10.806;2023-02-19T02:05:16;93662.31;;;5.44;82.54
16738;BME280;17906;47.684;10.806;2023-02-19T02:07:45;93658.16;;;5.42;83.01
16738;BME280;17906;47.684;10.806;2023-02-19T02:10:28;93653.19;;;5.39;82.91
16738;BME280;17906;47.684;10.806;2023-02-19T02:12:56;93645.31;;;5.37;83.04
16738;BME280;17906;47.684;10.806;2023-02-19T02:15:25;93643.06;;;5.34;83.01
16738;BME280;17906;47.684;10.806;2023-02-19T02:17:59;93646.56;;;5.35;83.15
16738;BME280;17906;47.684;10.806;2023-02-19T02:20:35;93626.53;;;5.31;82.98
16738;BME280;17906;47.684;10.806;2023-02-19T02:23:08;93634.97;;;5.27;83.22
16738;BME280;17906;47.684;10.806;2023-02-19T02:26:03;93633.13;;;5.28;83.10
16738;BME280;17906;47.684;10.806;2023-02-19T02:28:49;93628.16;;;5.12;84.03
16738;BME280;17906;47.684;10.806;2023-02-19T02:31:22;93625.69;;;5.10;84.04
16738;BME280;17906;47.684;10.806;2023-02-19T02:33:57;93621.94;;;5.05;84.05
16738;BME280;17906;47.684;10.806;2023-02-19T02:36:28;93628.59;;;5.09;84.23
16738;BME280;17906;47.684;10.806;2023-02-19T02:38:56;93625.69;;;5.10;84.24
16738;BME280;17906;47.684;10.806;2023-02-19T02:41:23;93623.81;;;4.98;85.07
16738;BME280;17906;47.684;10.806;2023-02-19T02:43:50;93629.81;;;4.86;85.50
16738;BME280;17906;47.684;10.806;2023-02-19T02:46:21;93618.00;;;4.81;85.96
16738;BME280;17906;47.684;10.806;2023-02-19T02:48:51;93611.16;;;4.85;85.54
16738;BME280;17906;47.684;10.806;2023-02-19T02:51:25;93604.16;;;4.84;85.77
16738;BME280;17906;47.684;10.806;2023-02-19T02:53:56;93608.50;;;4.91;85.55
16738;BME280;17906;47.684;10.806;2023-02-19T02:56:42;93601.69;;;4.89;85.37
16738;BME280;17906;47.684;10.806;2023-02-19T02:59:11;93594.22;;;4.84;85.70
16738;BME280;17906;47.684;10.806;2023-02-19T03:01:42;93591.34;;;4.92;85.19
16738;BME280;17906;47.684;10.806;2023-02-19T03:04:32;93586.38;;;4.96;85.08
16738;BME280;17906;47.684;10.806;2023-02-19T03:07:04;93573.38;;;4.93;85.12
16738;BME280;17906;47.684;10.806;2023-02-19T03:09:36;93578.31;;;4.83;85.35
16738;BME280;17906;47.684;10.806;2023-02-19T03:12:07;93566.56;;;4.84;85.88
16738;BME280;17906;47.684;10.806;2023-02-19T03:14:57;93558.72;;;4.76;86.90
16738;BME280;17906;47.684;10.806;2023-02-19T03:17:48;93550.84;;;4.81;86.90
16738;BME280;17906;47.684;10.806;2023-02-19T03:20:37;93548.19;;;4.87;87.08
16738;BME280;17906;47.684;10.806;2023-02-19T03:23:06;93548.78;;;4.83;87.27
16738;BME280;17906;47.684;10.806;2023-02-19T03:25:35;93548.78;;;4.89;87.26
16738;BME280;17906;47.684;10.806;2023-02-19T03:28:23;93539.06;;;4.95;87.11
16738;BME280;17906;47.684;10.806;2023-02-19T03:31:07;93537.66;;;4.99;86.94
16738;BME280;17906;47.684;10.806;2023-02-19T03:33:36;93540.09;;;5.07;86.75
16738;BME280;17906;47.684;10.806;2023-02-19T03:36:09;93529.75;;;5.17;86.34
16738;BME280;17906;47.684;10.806;2023-02-19T03:38:42;93517.38;;;5.23;86.21
16738;BME280;17906;47.684;10.806;2023-02-19T03:41:15;93526.44;;;5.29;85.62
16738;BME280;17906;47.684;10.806;2023-02-19T03:43:51;93515.69;;;5.35;84.87
16738;BME280;17906;47.684;10.806;2023-02-19T03:46:26;93525.63;;;5.41;84.60
16738;BME280;17906;47.684;10.806;2023-02-19T03:48:59;93529.13;;;5.42;84.29
16738;BME280;17906;47.684;10.806;2023-02-19T03:51:32;93526.41;;;5.48;83.52
16738;BME280;17906;47.684;10.806;2023-02-19T03:54:10;93529.31;;;5.47;84.06
16738;BME280;17906;47.684;10.806;2023-02-19T03:56:42;93539.25;;;5.53;83.26
16738;BME280;17906;47.684;10.806;2023-02-19T03:59:14;93539.03;;;5.54;82.93
16738;BME280;17906;47.684;10.806;2023-02-19T04:01:46;93546.22;;;5.67;81.72
16738;BME280;17906;47.684;10.806;2023-02-19T04:04:19;93551.19;;;5.70;81.49
16738;BME280;17906;47.684;10.806;2023-02-19T04:06:51;93535.84;;;5.77;81.14
16738;BME280;17906;47.684;10.806;2023-02-19T04:09:21;93538.72;;;5.82;80.71
16738;BME280;17906;47.684;10.806;2023-02-19T04:11:49;93549.47;;;5.82;80.65
16738;BME280;17906;47.684;10.806;2023-02-19T04:14:20;93563.56;;;5.84;80.59
16738;BME280;17906;47.684;10.806;2023-02-19T04:16:51;93563.53;;;5.91;80.82
16738;BME280;17906;47.684;10.806;2023-02-19T04:19:23;93567.88;;;5.92;80.52
16738;BME280;17906;47.684;10.806;2023-02-19T04:21:52;93576.16;;;5.91;80.54
16738;BME280;17906;47.684;10.806;2023-02-19T04:24:22;93544.69;;;5.91;80.58
16738;BME280;17906;47.684;10.806;2023-02-19T04:26:50;93562.72;;;5.91;80.89
16738;BME280;17906;47.684;10.806;2023-02-19T04:29:17;93578.03;;;5.90;81.01
16738;BME280;17906;47.684;10.806;2023-02-19T04:31:44;93568.31;;;5.82;81.45
16738;BME280;17906;47.684;10.806;2023-02-19T04:34:10;93605.78;;;5.84;81.68
16738;BME280;17906;47.684;10.806;2023-02-19T04:36:38;93592.75;;;5.81;81.74
16738;BME280;17906;47.684;10.806;2023-02-19T04:39:05;93595.66;;;5.79;82.21
16738;BME280;17906;47.684;10.806;2023-02-19T04:41:32;93614.91;;;5.76;82.91
16738;BME280;17906;47.684;10.806;2023-02-19T04:43:59;93634.34;;;5.72;83.34
16738;BME280;17906;47.684;10.806;2023-02-19T04:46:25;93641.41;;;5.66;84.09
16738;BME280;17906;47.684;10.806;2023-02-19T04:48:52;93649.88;;;5.57;84.79
16738;BME280;17906;47.684;10.806;2023-02-19T04:51:18;93663.94;;;5.45;85.66
16738;BME280;17906;47.684;10.806;2023-02-19T04:53:46;93636.22;;;5.38;85.87
16738;BME280;17906;47.684;10.806;2023-02-19T04:56:14;93647.22;;;5.30;85.71
16738;BME280;17906;47.684;10.806;2023-02-19T04:58:41;93621.53;;;5.27;86.45
16738;BME280;17906;47.684;10.806;2023-02-19T05:01:09;93619.28;;;5.24;86.82
16738;BME280;17906;47.684;10.806;2023-02-19T05:03:36;93620.31;;;5.17;88.21
16738;BME280;17906;47.684;10.806;2023-02-19T05:06:04;93631.44;;;5.07;89.51
16738;BME280;17906;47.684;10.806;2023-02-19T05:08:31;93636.41;;;4.97;91.46
16738;BME280;17906;47.684;10.806;2023-02-19T05:11:00;93636.38;;;4.84;93.09
16738;BME280;17906;47.684;10.806;2023-02-19T05:13:28;93640.53;;;4.86;92.56
16738;BME280;17906;47.684;10.806;2023-02-19T05:15:56;93642.13;;;4.74;93.28
16738;BME280;17906;47.684;10.806;2023-02-19T05:18:23;93638.84;;;4.72;93.51
16738;BME280;17906;47.684;10.806;2023-02-19T05:20:51;93643.38;;;4.72;92.68
16738;BME280;17906;47.684;10.806;2023-02-19T05:23:18;93658.47;;;4.73;93.29
16738;BME280;17906;47.684;10.806;2023-02-19T05:25:45;93665.69;;;4.72;93.56
16738;BME280;17906;47.684;10.806;2023-02-19T05:28:13;93654.94;;;4.72;93.58
16738;BME280;17906;47.684;10.806;2023-02-19T05:30:42;93657.84;;;4.71;92.71
16738;BME280;17906;47.684;10.806;2023-02-19T05:33:09;93663.63;;;4.74;92.47
16738;BME280;17906;47.684;10.806;2023-02-19T05:35:40;93669.81;;;4.75;91.92
16738;BME280;17906;47.684;10.806;2023-02-19T05:38:07;93670.25;;;4.78;90.42
16738;BME280;17906;47.684;10.806;2023-02-19T05:40:33;93675.03;;;4.83;91.37
16738;BME280;17906;47.684;10.806;2023-02-19T05:43:00;93668.19;;;4.80;90.10
16738;BME280;17906;47.684;10.806;2023-02-19T05:45:28;93672.53;;;4.81;90.49
16738;BME280;17906;47.684;10.806;2023-02-19T05:47:54;93662.22;;;4.85;90.13
16738;BME280;17906;47.684;10.806;2023-02-19T05:50:21;93671.75;;;4.94;88.08
16738;BME280;17906;47.684;10.806;2023-02-19T05:52:47;93669.06;;;4.94;87.18
16738;BME280;17906;47.684;10.806;2023-02-19T05:55:14;93669.28;;;4.99;86.86
16738;BME280;17906;47.684;10.806;2023-02-19T05:57:42;93681.88;;;5.05;86.58
16738;BME280;17906;47.684;10.806;2023-02-19T06:00:10;93677.53;;;5.04;86.87
16738;BME280;17906;47.684;10.806;2023-02-19T06:02:38;93674.25;;;5.02;86.32
16738;BME280;17906;47.684;10.806;2023-02-19T06:05:05;93681.88;;;5.05;85.46
16738;BME280;17906;47.684;10.806;2023-02-19T06:07:32;93674.88;;;5.11;85.48
16738;BME280;17906;47.684;10.806;2023-02-19T06:09:59;93677.56;;;5.11;83.49
16738;BME280;17906;47.684;10.806;2023-02-19T06:12:26;93688.53;;;5.16;82.83
16738;BME280;17906;47.684;10.806;2023-02-19T06:14:53;93655.69;;;5.34;77.20
16738;BME280;17906;47.684;10.806;2023-02-19T06:17:19;93666.41;;;5.40;78.03
16738;BME280;17906;47.684;10.806;2023-02-19T06:19:47;93672.00;;;5.39;78.09
16738;BME280;17906;47.684;10.806;2023-02-19T06:22:14;93669.34;;;5.45;76.27
16738;BME280;17906;47.684;10.806;2023-02-19T06:24:41;93673.69;;;5.53;75.29
16738;BME280;17906;47.684;10.806;2023-02-19T06:27:08;93681.53;;;5.54;74.43
16738;BME280;17906;47.684;10.806;2023-02-19T06:29:35;93664.78;;;5.59;73.96
16738;BME280;17906;47.684;10.806;2023-02-19T06:32:03;93684.44;;;5.66;72.68
16738;BME280;17906;47.684;10.806;2023-02-19T06:34:30;93670.34;;;5.71;71.99
16738;BME280;17906;47.684;10.806;2023-02-19T06:36:58;93673.47;;;5.74;71.00
16738;BME280;17906;47.684;10.806;2023-02-19T06:39:25;93687.50;;;5.83;70.30
16738;BME280;17906;47.684;10.806;2023-02-19T06:41:53;93685.25;;;5.87;70.36
16738;BME280;17906;47.684;10.806;2023-02-19T06:44:20;93704.69;;;5.89;69.50
16738;BME280;17906;47.684;10.806;2023-02-19T06:46:47;93699.94;;;5.91;68.48
16738;BME280;17906;47.684;10.806;2023-02-19T06:49:13;93707.63;;;6.07;65.95
16738;BME280;17906;47.684;10.806;2023-02-19T06:51:40;93706.16;;;6.11;66.57
16738;BME280;17906;47.684;10.806;2023-02-19T06:54:08;93714.66;;;6.08;67.53
16738;BME280;17906;47.684;10.806;2023-02-19T06:56:36;93713.38;;;6.04;67.38
16738;BME280;17906;47.684;10.806;2023-02-19T06:59:05;93715.88;;;6.05;66.81
16738;BME280;17906;47.684;10.806;2023-02-19T07:01:33;93718.97;;;6.02;67.76
16738;BME280;17906;47.684;10.806;2023-02-19T07:04:01;93717.94;;;5.97;68.41
16738;BME280;17906;47.684;10.806;2023-02-19T07:06:28;93726.22;;;5.95;69.08
16738;BME280;17906;47.684;10.806;2023-02-19T07:08:56;93731.59;;;5.95;68.35
16738;BME280;17906;47.684;10.806;2023-02-19T07:11:25;93724.34;;;6.02;68.07
16738;BME280;17906;47.684;10.806;2023-02-19T07:13:53;93726.81;;;6.04;67.91
16738;BME280;17906;47.684;10.806;2023-02-19T07:16:20;93729.94;;;6.01;68.52
16738;BME280;17906;47.684;10.806;2023-02-19T07:18:46;93734.88;;;6.04;68.11
16738;BME280;17906;47.684;10.806;2023-02-19T07:21:14;93729.94;;;6.01;68.13
16738;BME280;17906;47.684;10.806;2023-02-19T07:23:41;93728.50;;;5.92;68.87
16738;BME280;17906;47.684;10.806;2023-02-19T07:26:09;93729.53;;;5.97;68.84
16738;BME280;17906;47.684;10.806;2023-02-19T07:28:38;93729.53;;;5.97;68.77
16738;BME280;17906;47.684;10.806;2023-02-19T07:31:05;93728.28;;;6.00;68.50
16738;BME280;17906;47.684;10.806;2023-02-19T07:33:32;93740.09;;;5.99;69.05
16738;BME280;17906;47.684;10.806;2023-02-19T07:35:58;93731.59;;;5.89;69.89
16738;BME280;17906;47.684;10.806;2023-02-19T07:38:25;93751.06;;;5.84;70.84
16738;BME280;17906;47.684;10.806;2023-02-19T07:40:53;93761.84;;;5.84;71.29
16738;BME280;17906;47.684;10.806;2023-02-19T07:43:20;93754.16;;;5.88;71.51
16738;BME280;17906;47.684;10.806;2023-02-19T07:45:49;93768.03;;;5.84;71.79
16738;BME280;17906;47.684;10.806;2023-02-19T07:48:16;93778.56;;;5.79;72.32
16738;BME280;17906;47.684;10.806;2023-02-19T07:50:49;93783.75;;;5.74;72.80
16738;BME280;17906;47.684;10.806;2023-02-19T07:53:16;93800.06;;;5.73;73.48
16738;BME280;17906;47.684;10.806;2023-02-19T07:55:43;93803.63;;;5.73;73.65
16738;BME280;17906;47.684;10.806;2023-02-19T07:58:09;93815.19;;;5.67;74.47
16738;BME280;17906;47.684;10.806;2023-02-19T08:00:36;93816.63;;;5.63;75.27
16738;BME280;17906;47.684;10.806;2023-02-19T08:03:04;93822.41;;;5.60;76.53
16738;BME280;17906;47.684;10.806;2023-02-19T08:05:32;93826.75;;;5.54;77.37
16738;BME280;17906;47.684;10.806;2023-02-19T08:07:59;93835.03;;;5.53;78.41
16738;BME280;17906;47.684;10.806;2023-02-19T08:10:26;93831.69;;;5.44;80.13
16738;BME280;17906;47.684;10.806;2023-02-19T08:13:11;93836.78;;;5.26;82.66
16738;BME280;17906;47.684;10.806;2023-02-19T08:15:48;93845.00;;;5.18;85.33
16738;BME280;17906;47.684;10.806;2023-02-19T08:18:18;93840.03;;;5.08;86.75
16738;BME280;17906;47.684;10.806;2023-02-19T08:20:45;93845.53;;;4.93;87.79
16738;BME280;17906;47.684;10.806;2023-02-19T08:23:11;93851.09;;;4.92;88.84
16738;BME280;17906;47.684;10.806;2023-02-19T08:25:39;93853.94;;;4.84;90.23
16738;BME280;17906;47.684;10.806;2023-02-19T08:28:08;93855.34;;;4.73;91.85
16738;BME280;17906;47.684;10.806;2023-02-19T08:30:36;93848.28;;;4.65;91.70
16738;BME280;17906;47.684;10.806;2023-02-19T08:33:04;93853.00;;;4.63;92.47
16738;BME280;17906;47.684;10.806;2023-02-19T08:35:33;93873.03;;;4.61;92.93
16738;BME280;17906;47.684;10.806;2023-02-19T08:38:00;93863.09;;;4.61;92.56
16738;BME280;17906;47.684;10.806;2023-02-19T08:40:27;93872.81;;;4.62;92.90
16738;BME280;17906;47.684;10.806;2023-02-19T08:42:53;93873.69;;;4.70;91.66
16738;BME280;17906;47.684;10.806;2023-02-19T08:45:20;93874.31;;;4.65;91.76
16738;BME280;17906;47.684;10.806;2023-02-19T08:47:48;93881.13;;;4.67;91.70
16738;BME280;17906;47.684;10.806;2023-02-19T08:50:15;93876.63;;;4.75;91.43
16738;BME280;17906;47.684;10.806;2023-02-19T08:52:42;93886.03;;;4.64;93.65
16738;BME280;17906;47.684;10.806;2023-02-19T08:55:09;93902.16;;;4.64;94.27
16738;BME280;17906;47.684;10.806;2023-02-19T08:57:36;93895.34;;;4.61;95.12
16738;BME280;17906;47.684;10.806;2023-02-19T09:00:03;93885.75;;;4.52;96.97
16738;BME280;17906;47.684;10.806;2023-02-19T09:02:30;93887.41;;;4.53;97.44
16738;BME280;17906;47.684;10.806;2023-02-19T09:04:56;93897.16;;;4.54;97.22
16738;BME280;17906;47.684;10.806;2023-02-19T09:07:23;93892.84;;;4.60;96.17
16738;BME280;17906;47.684;10.806;2023-02-19T09:09:51;93886.88;;;4.64;95.74
16738;BME280;17906;47.684;10.806;2023-02-19T09:12:18;93892.09;;;4.73;95.39
16738;BME280;17906;47.684;10.806;2023-02-19T09:14:44;93901.63;;;4.75;95.56
16738;BME280;17906;47.684;10.806;2023-02-19T09:17:11;93894.03;;;4.85;94.30
16738;BME280;17906;47.684;10.806;2023-02-19T09:19:38;93893.66;;;4.88;94.21
16738;BME280;17906;47.684;10.806;2023-02-19T09:22:04;93897.81;;;4.91;93.16
16738;BME280;17906;47.684;10.806;2023-02-19T09:24:31;93898.47;;;5.00;93.18
16738;BME280;17906;47.684;10.806;2023-02-19T09:26:59;93894.78;;;5.07;92.71
16738;BME280;17906;47.684;10.806;2023-02-19T09:29:27;93893.38;;;5.18;91.17
16738;BME280;17906;47.684;10.806;2023-02-19T09:31:58;93897.34;;;5.22;90.06
16738;BME280;17906;47.684;10.806;2023-02-19T09:34:26;93894.72;;;5.35;89.99
16738;BME280;17906;47.684;10.806;2023-02-19T09:36:53;93891.63;;;5.38;89.04
16738;BME280;17906;47.684;10.806;2023-02-19T09:39:20;93894.56;;;5.50;88.68
16738;BME280;17906;47.684;10.806;2023-02-19T09:41:48;93885.28;;;5.52;86.75
16738;BME280;17906;47.684;10.806;2023-02-19T09:44:23;93894.22;;;5.66;84.16
16738;BME280;17906;47.684;10.806;2023-02-19T09:46:51;93897.78;;;5.73;85.27
16738;BME280;17906;47.684;10.806;2023-02-19T09:49:21;93904.41;;;5.91;84.11
16738;BME280;17906;47.684;10.806;2023-02-19T09:51:52;93903.81;;;6.02;84.59
16738;BME280;17906;47.684;10.806;2023-02-19T09:54:22;93903.44;;;6.05;83.75
16738;BME280;17906;47.684;10.806;2023-02-19T09:56:50;93911.91;;;5.95;84.39
16738;BME280;17906;47.684;10.806;2023-02-19T09:59:21;93904.25;;;5.99;83.91
16738;BME280;17906;47.684;10.806;2023-02-19T10:01:55;93911.75;;;6.10;82.73
16738;BME280;17906;47.684;10.806;2023-02-19T10:04:23;93893.06;;;6.02;83.54
16738;BME280;17906;47.684;10.806;2023-02-19T10:06:50;93901.38;;;6.13;83.69
16738;BME280;17906;47.684;10.806;2023-02-19T10:09:22;93894.13;;;6.14;81.83
16738;BME280;17906;47.684;10.806;2023-02-19T10:11:51;93901.00;;;6.17;80.35
16738;BME280;17906;47.684;10.806;2023-02-19T10:14:27;93901.19;;;6.22;81.19
16738;BME280;17906;47.684;10.806;2023-02-19T10:16:57;93896.44;;;6.30;80.42
16738;BME280;17906;47.684;10.806;2023-02-19T10:19:24;93904.91;;;6.14;81.44
16738;BME280;17906;47.684;10.806;2023-02-19T10:21:51;93902.59;;;6.04;80.91
16738;BME280;17906;47.684;10.806;2023-02-19T10:24:20;93908.84;;;6.11;80.63
16738;BME280;17906;47.684;10.806;2023-02-19T10:26:50;93898.50;;;6.22;79.39
16738;BME280;17906;47.684;10.806;2023-02-19T10:29:16;93916.28;;;6.16;80.86
16738;BME280;17906;47.684;10.806;2023-02-19T10:31:45;93921.88;;;6.15;80.88
16738;BME280;17906;47.684;10.806;2023-02-19T10:34:17;93917.34;;;6.08;80.93
16738;BME280;17906;47.684;10.806;2023-02-19T10:36:47;93922.09;;;6.06;81.39
16738;BME280;17906;47.684;10.806;2023-02-19T10:39:34;93929.75;;;6.09;80.15
16738;BME280;17906;47.684;10.806;2023-02-19T10:42:03;93930.19;;;6.26;80.76
16738;BME280;17906;47.684;10.806;2023-02-19T10:44:34;93926.91;;;6.31;80.27
16738;BME280;17906;47.684;10.806;2023-02-19T10:47:03;93932.91;;;6.33;79.44
16738;BME280;17906;47.684;10.806;2023-02-19T10:49:32;93940.97;;;6.33;79.68
16738;BME280;17906;47.684;10.806;2023-02-19T10:52:10;93923.38;;;6.17;78.45
16738;BME280;17906;47.684;10.806;2023-02-19T10:54:42;93926.06;;;6.17;80.22
16738;BME280;17906;47.684;10.806;2023-02-19T10:57:21;93932.50;;;6.29;79.32
16738;BME280;17906;47.684;10.806;2023-02-19T10:59:56;93934.78;;;6.46;79.72
16738;BME280;17906;47.684;10.806;2023-02-19T11:02:25;93928.97;;;6.49;79.45
16738;BME280;17906;47.684;10.806;2023-02-19T11:05:08;93918.84;;;6.51;78.38
16738;BME280;17906;47.684;10.806;2023-02-19T11:07:43;93928.56;;;6.52;77.89
16738;BME280;17906;47.684;10.806;2023-02-19T11:10:20;93919.66;;;6.45;77.77
16738;BME280;17906;47.684;10.806;2023-02-19T11:12:50;93923.19;;;6.38;76.05
16738;BME280;17906;47.684;10.806;2023-02-19T11:15:20;93915.50;;;6.35;77.05
16738;BME280;17906;47.684;10.806;2023-02-19T11:17:56;93924.59;;;6.34;78.63
16738;BME280;17906;47.684;10.806;2023-02-19T11:20:24;93927.31;;;6.34;77.79
16738;BME280;17906;47.684;10.806;2023-02-19T11:22:56;93924.41;;;6.89;76.93
16738;BME280;17906;47.684;10.806;2023-02-19T11:25:26;93910.47;;;7.18;74.81
16738;BME280;17906;47.684;10.806;2023-02-19T11:27:55;93911.91;;;7.21;74.39
16738;BME280;17906;47.684;10.806;2023-02-19T11:30:34;93902.63;;;7.04;74.37
16738;BME280;17906;47.684;10.806;2023-02-19T11:33:26;93896.34;;;7.29;73.41
16738;BME280;17906;47.684;10.806;2023-02-19T11:35:59;93890.13;;;7.29;72.12
16738;BME280;17906;47.684;10.806;2023-02-19T11:38:42;93872.13;;;7.10;71.61
16738;BME280;17906;47.684;10.806;2023-02-19T11:41:15;93879.63;;;6.94;72.34
16738;BME280;17906;47.684;10.806;2023-02-19T11:43:57;93861.63;;;6.82;73.41
16738;BME280;17906;47.684;10.806;2023-02-19T11:46:33;93880.25;;;7.54;71.36
16738;BME280;17906;47.684;10.806;2023-02-19T11:49:13;93873.44;;;8.53;67.53
16738;BME280;17906;47.684;10.806;2023-02-19T11:51:55;93863.91;;;9.00;66.99
16738;BME280;17906;47.684;10.806;2023-02-19T11:54:39;93870.75;;;9.40;63.85
16738;BME280;17906;47.684;10.806;2023-02-19T11:57:15;93885.63;;;9.49;63.29
16738;BME280;17906;47.684;10.806;2023-02-19T11:59:47;93874.81;;;9.12;63.46
16738;BME280;17906;47.684;10.806;2023-02-19T12:02:43;93877.63;;;8.56;63.61
16738;BME280;17906;47.684;10.806;2023-02-19T12:05:29;93874.81;;;8.87;65.44
16738;BME280;17906;47.684;10.806;2023-02-19T12:08:40;93869.06;;;8.59;64.30
16738;BME280;17906;47.684;10.806;2023-02-19T12:11:23;93871.34;;;8.30;66.41
16738;BME280;17906;47.684;10.806;2023-02-19T12:14:15;93853.88;;;8.33;66.64
16738;BME280;17906;47.684;10.806;2023-02-19T12:16:49;93855.63;;;8.21;68.75
16738;BME280;17906;47.684;10.806;2023-02-19T12:19:34;93849.72;;;8.55;67.48
16738;BME280;17906;47.684;10.806;2023-02-19T12:22:18;93858.16;;;8.65;67.13
16738;BME280;17906;47.684;10.806;2023-02-19T12:25:04;93851.13;;;8.64;66.24
16738;BME280;17906;47.684;10.806;2023-02-19T12:27:45;93844.34;;;8.98;65.64
16738;BME280;17906;47.684;10.806;2023-02-19T12:30:27;93863.28;;;8.98;64.68
16738;BME280;17906;47.684;10.806;2023-02-19T12:33:10;93846.69;;;8.95;66.99
16738;BME280;17906;47.684;10.806;2023-02-19T12:35:54;93850.13;;;8.84;65.81
16738;BME280;17906;47.684;10.806;2023-02-19T12:38:29;93851.47;;;8.93;65.33
16738;BME280;17906;47.684;10.806;2023-02-19T12:41:19;93845.19;;;9.17;63.74
16738;BME280;17906;47.684;10.806;2023-02-19T12:43:54;93832.25;;;9.19;61.89
16738;BME280;17906;47.684;10.806;2023-02-19T12:46:28;93855.50;;;9.27;61.54
16738;BME280;17906;47.684;10.806;2023-02-19T12:49:00;93860.53;;;9.23;60.12
16738;BME280;17906;47.684;10.806;2023-02-19T12:51:34;93863.78;;;9.50;59.67
16738;BME280;17906;47.684;10.806;2023-02-19T12:54:08;93861.59;;;9.22;58.18
16738;BME280;17906;47.684;10.806;2023-02-19T12:56:41;93877.00;;;9.22;59.27
16738;BME280;17906;47.684;10.806;2023-02-19T12:59:13;93888.75;;;9.52;57.68
16738;BME280;17906;47.684;10.806;2023-02-19T13:01:45;93888.13;;;9.32;58.40
16738;BME280;17906;47.684;10.806;2023-02-19T13:04:23;93903.03;;;8.73;59.09
16738;BME280;17906;47.684;10.806;2023-02-19T13:06:55;93911.88;;;8.30;59.86
16738;BME280;17906;47.684;10.806;2023-02-19T13:09:29;93921.00;;;7.98;61.91
16738;BME280;17906;47.684;10.806;2023-02-19T13:12:02;93917.66;;;7.89;62.64
16738;BME280;17906;47.684;10.806;2023-02-19T13:14:33;93915.53;;;7.60;62.65
16738;BME280;17906;47.684;10.806;2023-02-19T13:17:07;93911.47;;;7.37;63.53
16738;BME280;17906;47.684;10.806;2023-02-19T13:19:37;93920.38;;;7.31;64.75